Aviation Digital Data Service (ADDS)

Output produced by METARs form (1121 UTC 31 March 2015)
found at http://aviationweather.gov/adds/metars/
 
KSSI 310524Z 3106/0106 25005KT P6SM FEW050 
     FM310900 26004KT 3SM BR SCT005 
     FM311100 27003KT 1SM BR BKN003 
     FM311430 28005KT P6SM FEW030 SCT250 
     FM312000 19008KT P6SM VCTS BKN050CB BKN250 
     FM010500 24005KT P6SM SCT050 BKN250